Time;durP1;ratioP1;P1;durP2;ratioP2;P2;SDS_P1;SDS_P2;PMS_P1;PMS_P2;Temp;Humidity;BMP_temperature;BMP_pressure;BME280_temperature;BME280_humidity;BME280_pressure;Samples;Min_cycle;Max_cycle;Signal;HPM_P1;HPM_P2
2022/06/04 00:01:53;;;;;;;;;21.25;18.50;;;;;;;;4986296;28;8813;-80
2022/06/04 00:04:20;;;;;;;;;25.00;22.75;;;;;;;;4970722;28;9005;-81
2022/06/04 00:06:48;;;;;;;;;20.00;20.00;;;;;;;;4988070;28;8870;-80
2022/06/04 00:09:16;;;;;;;;;19.25;19.25;;;;;;;;4986433;28;8866;-80
2022/06/04 00:17:17;;;;;;;;;27.75;23.75;;;;;;;;4985790;28;8888;-81
2022/06/04 00:19:45;;;;;;;;;19.25;19.25;;;;;;;;4984965;28;8870;-80
2022/06/04 00:22:12;;;;;;;;;22.33;20.33;;;;;;;;4984378;28;8866;-81
2022/06/04 00:24:41;;;;;;;;;19.75;18.50;;;;;;;;4984989;28;8987;-81
2022/06/04 00:27:12;;;;;;;;;23.00;21.25;;;;;;;;4985486;28;8873;-81
2022/06/04 00:29:41;;;;;;;;;18.25;18.25;;;;;;;;4982338;28;8887;-81
2022/06/04 00:32:09;;;;;;;;;17.00;17.00;;;;;;;;4983824;28;8837;-81
2022/06/04 00:34:36;;;;;;;;;18.00;17.00;;;;;;;;4985397;28;8866;-80
2022/06/04 00:37:03;;;;;;;;;23.50;19.75;;;;;;;;4984336;28;8945;-80
2022/06/04 00:39:31;;;;;;;;;21.00;20.75;;;;;;;;4982671;28;8997;-80
2022/06/04 00:42:05;;;;;;;;;26.00;24.00;;;;;;;;4967589;28;8893;-80
2022/06/04 00:45:21;;;;;;;;;24.00;22.67;;;;;;;;4981577;28;8984;-80
2022/06/04 00:47:50;;;;;;;;;27.00;27.00;;;;;;;;4942128;28;9069;-80
2022/06/04 00:50:20;;;;;;;;;28.67;27.33;;;;;;;;4980575;28;9030;-80
2022/06/04 00:52:49;;;;;;;;;26.00;26.00;;;;;;;;4983735;28;9021;-79
2022/06/04 00:55:17;;;;;;;;;27.00;26.25;;;;;;;;4983534;28;8956;-81
2022/06/04 00:58:01;;;;;;;;;25.00;25.00;;;;;;;;4982895;28;8893;-80
2022/06/04 01:00:32;;;;;;;;;32.50;25.75;;;;;;;;4982881;28;8814;-80
2022/06/04 01:03:13;;;;;;;;;30.33;24.33;;;;;;;;4979810;28;8997;-81
2022/06/04 01:05:53;;;;;;;;;24.25;23.00;;;;;;;;4978754;28;8956;-80
2022/06/04 01:08:43;;;;;;;;;20.00;17.33;;;;;;;;4982408;28;8867;-80
2022/06/04 01:11:19;;;;;;;;;26.25;22.25;;;;;;;;4973921;28;9792;-78
2022/06/04 01:14:01;;;;;;;;;24.50;22.75;;;;;;;;4962120;28;9008;-77
2022/06/04 01:16:38;;;;;;;;;26.25;23.50;;;;;;;;4983097;28;8872;-77
2022/06/04 01:19:23;;;;;;;;;25.25;24.00;;;;;;;;4960338;28;8867;-77
2022/06/04 01:22:06;;;;;;;;;25.25;23.75;;;;;;;;4981278;28;8870;-77
2022/06/04 01:24:45;;;;;;;;;23.25;23.25;;;;;;;;4983076;28;8859;-77
2022/06/04 01:27:18;;;;;;;;;18.50;18.50;;;;;;;;4982074;28;8846;-78
2022/06/04 01:30:02;;;;;;;;;22.75;21.00;;;;;;;;4981166;28;8859;-78
2022/06/04 01:32:33;;;;;;;;;22.50;20.00;;;;;;;;4980661;28;8960;-79
2022/06/04 01:35:06;;;;;;;;;21.00;21.00;;;;;;;;4981490;28;8906;-80
2022/06/04 01:37:38;;;;;;;;;26.25;22.50;;;;;;;;4982097;28;8843;-79
2022/06/04 01:42:55;;;;;;;;;24.50;24.50;;;;;;;;4977755;28;8843;-82
2022/06/04 01:45:25;;;;;;;;;26.00;23.75;;;;;;;;4984919;28;8874;-82
2022/06/04 01:47:53;;;;;;;;;23.25;23.25;;;;;;;;4985351;28;8894;-82
2022/06/04 01:50:24;;;;;;;;;27.75;27.75;;;;;;;;4964931;28;8874;-82
2022/06/04 01:52:53;;;;;;;;;31.75;28.50;;;;;;;;4962258;28;8885;-81
2022/06/04 01:55:24;;;;;;;;;30.00;29.50;;;;;;;;4964208;28;8970;-82
2022/06/04 01:57:57;;;;;;;;;25.50;25.50;;;;;;;;4983283;28;8866;-82
2022/06/04 02:00:26;;;;;;;;;29.00;25.75;;;;;;;;4986957;28;8751;-82
2022/06/04 02:02:56;;;;;;;;;29.50;27.25;;;;;;;;4982897;28;8889;-82
2022/06/04 02:05:31;;;;;;;;;23.75;23.25;;;;;;;;4983403;28;8985;-80
2022/06/04 02:08:01;;;;;;;;;26.00;23.75;;;;;;;;4982148;28;8859;-80
2022/06/04 02:10:31;;;;;;;;;24.50;24.50;;;;;;;;4980043;28;8866;-79
2022/06/04 02:13:02;;;;;;;;;24.00;24.00;;;;;;;;4978986;28;8851;-81
2022/06/04 02:15:33;;;;;;;;;27.25;27.25;;;;;;;;4963451;28;8989;-80
2022/06/04 02:18:03;;;;;;;;;23.00;23.00;;;;;;;;4979216;28;9005;-80
2022/06/04 02:20:31;;;;;;;;;21.00;20.25;;;;;;;;4980489;28;8928;-80
2022/06/04 02:23:00;;;;;;;;;23.25;22.25;;;;;;;;4983768;28;8862;-80
2022/06/04 02:25:30;;;;;;;;;23.50;21.75;;;;;;;;4982047;28;8870;-79
2022/06/04 02:28:00;;;;;;;;;24.75;23.00;;;;;;;;4980865;28;8890;-81
2022/06/04 02:30:33;;;;;;;;;21.00;21.00;;;;;;;;4965062;28;8827;-79
2022/06/04 02:33:08;;;;;;;;;23.00;23.00;;;;;;;;4982117;28;8874;-79
2022/06/04 02:35:40;;;;;;;;;23.50;22.25;;;;;;;;4983705;28;8875;-80
2022/06/04 02:38:14;;;;;;;;;19.75;19.25;;;;;;;;4964688;28;8866;-80
2022/06/04 02:40:45;;;;;;;;;16.00;16.00;;;;;;;;4983153;28;8893;-79
2022/06/04 02:43:17;;;;;;;;;17.75;17.75;;;;;;;;4982081;28;8874;-80
2022/06/04 02:45:50;;;;;;;;;23.25;23.25;;;;;;;;4983247;28;8862;-80
2022/06/04 02:48:23;;;;;;;;;23.50;22.75;;;;;;;;4989279;28;8912;-80
2022/06/04 02:50:54;;;;;;;;;26.75;25.00;;;;;;;;4973608;28;8842;-80
2022/06/04 02:53:21;;;;;;;;;19.25;18.75;;;;;;;;4984041;28;9053;-80
2022/06/04 02:55:53;;;;;;;;;21.50;21.50;;;;;;;;4988483;28;9003;-81
2022/06/04 02:58:22;;;;;;;;;25.25;25.25;;;;;;;;4998038;28;8890;-80
2022/06/04 03:00:54;;;;;;;;;20.25;20.25;;;;;;;;4989320;28;8791;-80
2022/06/04 03:03:22;;;;;;;;;21.75;19.00;;;;;;;;4964224;28;9005;-80
2022/06/04 03:05:55;;;;;;;;;19.50;19.50;;;;;;;;4989764;28;8880;-80
2022/06/04 03:08:23;;;;;;;;;19.00;17.25;;;;;;;;4992566;28;9071;-80
2022/06/04 03:10:51;;;;;;;;;22.25;22.25;;;;;;;;4981527;28;8862;-79
2022/06/04 03:13:18;;;;;;;;;24.00;23.25;;;;;;;;4978810;28;8875;-80
2022/06/04 03:15:47;;;;;;;;;21.50;19.25;;;;;;;;4964742;28;8888;-80
2022/06/04 03:18:15;;;;;;;;;23.75;23.75;;;;;;;;4982847;28;9711;-80
2022/06/04 03:20:42;;;;;;;;;32.33;31.33;;;;;;;;4981131;28;8855;-78
2022/06/04 03:23:10;;;;;;;;;56.25;47.00;;;;;;;;4982243;28;9108;-80
2022/06/04 03:25:39;;;;;;;;;54.50;45.00;;;;;;;;4980704;28;9888;-79
2022/06/04 03:28:07;;;;;;;;;60.00;49.50;;;;;;;;4984337;28;9809;-80
2022/06/04 03:30:35;;;;;;;;;65.25;50.50;;;;;;;;4963412;28;10115;-80
2022/06/04 03:33:04;;;;;;;;;54.25;45.00;;;;;;;;4982100;28;9970;-80
2022/06/04 03:35:32;;;;;;;;;58.00;48.75;;;;;;;;4980434;28;9729;-80
2022/06/04 03:38:00;;;;;;;;;45.75;40.00;;;;;;;;4980151;28;9819;-80
2022/06/04 03:40:27;;;;;;;;;48.50;41.00;;;;;;;;4983257;28;9573;-81
2022/06/04 03:42:55;;;;;;;;;45.33;38.33;;;;;;;;4959888;28;9487;-80
2022/06/04 03:45:24;;;;;;;;;40.67;35.00;;;;;;;;4979951;28;9298;-79
2022/06/04 03:47:52;;;;;;;;;47.33;41.33;;;;;;;;4980481;28;9116;-81
2022/06/04 03:50:21;;;;;;;;;49.00;38.75;;;;;;;;4979823;28;9354;-79
2022/06/04 03:52:50;;;;;;;;;45.00;38.67;;;;;;;;4980124;28;10313;-80
2022/06/04 03:55:19;;;;;;;;;42.33;35.00;;;;;;;;4987599;28;9435;-81
2022/06/04 03:57:49;;;;;;;;;42.33;37.33;;;;;;;;4985543;28;9259;-83
2022/06/04 04:00:20;;;;;;;;;32.00;31.67;;;;;;;;4988991;28;9295;-81
2022/06/04 04:02:49;;;;;;;;;33.67;33.00;;;;;;;;4986248;28;9010;-79
2022/06/04 04:05:22;;;;;;;;;33.00;32.00;;;;;;;;4983428;28;9201;-79
2022/06/04 04:07:50;;;;;;;;;29.75;29.75;;;;;;;;4985242;28;8956;-80
2022/06/04 04:10:18;;;;;;;;;27.67;26.00;;;;;;;;4960008;28;8897;-79
2022/06/04 04:12:45;;;;;;;;;30.00;26.25;;;;;;;;4965367;28;9038;-81
2022/06/04 04:15:14;;;;;;;;;32.00;32.00;;;;;;;;4980093;28;8985;-79
2022/06/04 04:17:42;;;;;;;;;33.50;31.75;;;;;;;;4985967;28;8971;-81
2022/06/04 04:20:14;;;;;;;;;31.25;30.25;;;;;;;;4985877;28;8886;-80
2022/06/04 04:22:43;;;;;;;;;24.75;22.00;;;;;;;;4963475;28;8896;-81
2022/06/04 04:25:12;;;;;;;;;25.00;25.00;;;;;;;;4981011;28;8871;-81
2022/06/04 04:27:39;;;;;;;;;28.67;28.67;;;;;;;;4983775;28;8866;-81
2022/06/04 04:30:08;;;;;;;;;28.00;28.00;;;;;;;;4983158;28;9002;-81
2022/06/04 04:32:36;;;;;;;;;31.00;31.00;;;;;;;;4984078;28;8933;-80
2022/06/04 04:35:05;;;;;;;;;32.67;32.67;;;;;;;;4983091;28;9064;-80
2022/06/04 04:37:32;;;;;;;;;26.75;26.75;;;;;;;;4981983;28;9755;-79
2022/06/04 04:40:01;;;;;;;;;28.00;27.50;;;;;;;;4980068;28;9000;-79
2022/06/04 04:42:28;;;;;;;;;29.50;27.00;;;;;;;;4982917;28;8894;-79
2022/06/04 04:44:55;;;;;;;;;32.00;31.25;;;;;;;;4982671;28;8859;-79
2022/06/04 04:47:25;;;;;;;;;34.00;32.67;;;;;;;;4982193;28;8851;-81
2022/06/04 04:49:52;;;;;;;;;29.00;29.00;;;;;;;;4967030;28;9066;-79
2022/06/04 04:52:20;;;;;;;;;31.67;29.67;;;;;;;;4973004;28;8955;-80
2022/06/04 04:54:47;;;;;;;;;31.75;31.25;;;;;;;;4981404;28;8968;-80
2022/06/04 04:57:16;;;;;;;;;26.00;25.75;;;;;;;;4982537;28;8977;-79
2022/06/04 04:59:44;;;;;;;;;27.00;27.00;;;;;;;;4987427;28;8893;-83
2022/06/04 05:02:11;;;;;;;;;26.00;23.50;;;;;;;;4999798;28;8934;-78
2022/06/04 05:04:39;;;;;;;;;28.50;28.50;;;;;;;;4992487;28;8884;-78
2022/06/04 05:07:06;;;;;;;;;23.25;22.25;;;;;;;;4985035;28;8863;-78
2022/06/04 05:09:33;;;;;;;;;33.00;29.25;;;;;;;;4986444;28;8978;-78
2022/06/04 05:12:01;;;;;;;;;31.50;30.00;;;;;;;;4987432;28;8871;-76
2022/06/04 05:14:30;;;;;;;;;35.50;33.00;;;;;;;;4967731;28;8889;-80
2022/06/04 05:16:57;;;;;;;;;34.25;32.50;;;;;;;;4992303;28;8878;-80
2022/06/04 05:19:24;;;;;;;;;37.25;34.50;;;;;;;;4985182;28;8913;-77
2022/06/04 05:21:52;;;;;;;;;29.50;28.00;;;;;;;;4985422;28;8909;-84
2022/06/04 05:24:23;;;;;;;;;28.75;28.75;;;;;;;;4968394;28;8862;-80
2022/06/04 05:26:51;;;;;;;;;32.50;31.75;;;;;;;;4987081;28;8867;-76
2022/06/04 05:29:18;;;;;;;;;31.00;29.50;;;;;;;;4988248;28;8871;-79
2022/06/04 05:31:47;;;;;;;;;30.25;29.00;;;;;;;;4965969;28;8849;-80
2022/06/04 05:34:16;;;;;;;;;27.25;27.25;;;;;;;;4990906;28;8875;-81
2022/06/04 05:36:45;;;;;;;;;38.00;32.50;;;;;;;;4984700;28;8899;-76
2022/06/04 05:39:13;;;;;;;;;30.25;30.25;;;;;;;;4985498;28;9017;-78
2022/06/04 05:41:41;;;;;;;;;32.00;31.75;;;;;;;;4983900;28;8856;-82
2022/06/04 05:44:09;;;;;;;;;32.75;32.25;;;;;;;;4991235;28;8851;-78
2022/06/04 05:46:37;;;;;;;;;34.50;33.25;;;;;;;;4987534;28;9009;-85
2022/06/04 05:49:06;;;;;;;;;34.25;32.00;;;;;;;;4982479;28;9711;-86
2022/06/04 05:51:33;;;;;;;;;38.75;34.25;;;;;;;;4985739;28;8872;-87
2022/06/04 05:54:02;;;;;;;;;35.00;33.75;;;;;;;;4982062;28;8863;-80
2022/06/04 05:56:31;;;;;;;;;31.00;31.00;;;;;;;;4981917;28;8955;-85
2022/06/04 05:59:00;;;;;;;;;37.50;33.25;;;;;;;;4981889;28;9760;-74
2022/06/04 06:01:29;;;;;;;;;31.00;30.25;;;;;;;;4977158;28;8877;-73
2022/06/04 06:03:56;;;;;;;;;30.75;30.25;;;;;;;;4984953;28;8862;-73
2022/06/04 06:06:29;;;;;;;;;29.50;27.75;;;;;;;;4981032;28;9593;-73
2022/06/04 06:08:57;;;;;;;;;31.00;29.00;;;;;;;;4982442;28;8940;-76
2022/06/04 06:11:24;;;;;;;;;29.50;29.50;;;;;;;;4963105;28;8859;-76
2022/06/04 06:13:53;;;;;;;;;30.00;30.00;;;;;;;;4982214;28;8993;-73
2022/06/04 06:16:22;;;;;;;;;37.00;31.50;;;;;;;;4981267;28;8851;-76
2022/06/04 06:18:50;;;;;;;;;30.50;29.25;;;;;;;;4982395;28;8870;-74
2022/06/04 06:21:21;;;;;;;;;29.00;29.00;;;;;;;;4982725;28;8964;-74
2022/06/04 06:23:50;;;;;;;;;27.00;27.00;;;;;;;;4980684;28;8859;-73
2022/06/04 06:26:19;;;;;;;;;35.75;30.25;;;;;;;;4979981;28;8869;-74
2022/06/04 06:28:47;;;;;;;;;27.00;27.00;;;;;;;;4981839;28;8882;-73
2022/06/04 06:31:18;;;;;;;;;25.00;25.00;;;;;;;;4981652;28;8885;-73
2022/06/04 06:33:46;;;;;;;;;30.75;30.75;;;;;;;;4982212;28;8850;-73
2022/06/04 06:36:15;;;;;;;;;27.75;26.00;;;;;;;;4983560;28;8894;-73
2022/06/04 06:38:43;;;;;;;;;24.75;22.00;;;;;;;;4983503;28;9644;-73
2022/06/04 06:41:13;;;;;;;;;29.75;29.00;;;;;;;;4978797;28;8874;-73
2022/06/04 06:43:42;;;;;;;;;25.75;25.50;;;;;;;;4966409;28;8863;-73
2022/06/04 06:46:12;;;;;;;;;26.75;23.75;;;;;;;;4962256;28;9608;-76
2022/06/04 06:48:42;;;;;;;;;25.25;23.25;;;;;;;;4975096;28;8876;-76
2022/06/04 06:51:13;;;;;;;;;24.25;23.00;;;;;;;;4981356;28;8859;-76
2022/06/04 06:53:41;;;;;;;;;23.25;23.25;;;;;;;;4982900;28;8870;-74
2022/06/04 06:56:10;;;;;;;;;32.25;28.00;;;;;;;;4981927;28;8980;-75
2022/06/04 06:58:38;;;;;;;;;26.00;24.25;;;;;;;;4982176;28;8862;-74
2022/06/04 07:01:06;;;;;;;;;23.25;23.25;;;;;;;;4981936;28;8807;-74
2022/06/04 07:03:34;;;;;;;;;23.75;22.50;;;;;;;;4980775;28;9633;-75
2022/06/04 07:06:02;;;;;;;;;25.75;25.00;;;;;;;;4979266;28;8890;-73
2022/06/04 07:08:29;;;;;;;;;21.50;21.00;;;;;;;;4982246;28;8866;-73
2022/06/04 07:10:56;;;;;;;;;25.75;22.25;;;;;;;;4981135;28;9017;-74
2022/06/04 07:13:25;;;;;;;;;24.25;24.25;;;;;;;;4964098;28;9007;-72
2022/06/04 07:15:57;;;;;;;;;25.50;24.00;;;;;;;;4979186;28;8878;-73
2022/06/04 07:18:25;;;;;;;;;24.00;24.00;;;;;;;;4981826;28;8966;-73
2022/06/04 07:20:53;;;;;;;;;22.75;21.00;;;;;;;;4962357;28;8925;-77
2022/06/04 07:23:20;;;;;;;;;24.25;24.00;;;;;;;;4979916;28;8881;-75
2022/06/04 07:25:48;;;;;;;;;25.00;23.75;;;;;;;;4977499;28;8867;-75
2022/06/04 07:28:16;;;;;;;;;28.00;24.50;;;;;;;;4978972;28;9704;-72
2022/06/04 07:30:43;;;;;;;;;24.00;24.00;;;;;;;;4982926;28;8787;-74
2022/06/04 07:33:12;;;;;;;;;29.50;29.25;;;;;;;;4980653;28;8896;-73
2022/06/04 07:35:39;;;;;;;;;27.00;23.50;;;;;;;;4982894;28;8885;-74
2022/06/04 07:38:06;;;;;;;;;29.00;25.75;;;;;;;;4981297;28;9008;-74
2022/06/04 07:40:34;;;;;;;;;27.00;27.00;;;;;;;;4984252;28;9113;-74
2022/06/04 07:43:01;;;;;;;;;27.25;26.25;;;;;;;;4981134;28;9320;-76
2022/06/04 07:45:30;;;;;;;;;25.25;25.25;;;;;;;;4980415;28;8956;-74
2022/06/04 07:47:59;;;;;;;;;26.25;24.50;;;;;;;;4980763;28;8851;-74
2022/06/04 07:50:27;;;;;;;;;26.25;26.25;;;;;;;;4970670;28;8949;-74
2022/06/04 07:52:55;;;;;;;;;26.25;26.25;;;;;;;;4979823;28;8936;-74
2022/06/04 07:55:22;;;;;;;;;25.50;25.50;;;;;;;;4976900;28;8921;-79
2022/06/04 07:57:50;;;;;;;;;26.50;25.00;;;;;;;;4965413;28;8889;-75
2022/06/04 08:28:07;;;;;;;;;21.00;21.00;;;;;;;;4984246;28;8849;-75
2022/06/04 08:30:35;;;;;;;;;21.50;21.50;;;;;;;;4970967;28;9560;-74
2022/06/04 08:33:03;;;;;;;;;18.00;16.50;;;;;;;;4979294;28;8904;-74
2022/06/04 08:35:30;;;;;;;;;20.50;18.75;;;;;;;;4981707;28;8875;-76
2022/06/04 08:37:57;;;;;;;;;17.75;17.75;;;;;;;;4982133;28;8883;-77
2022/06/04 08:40:29;;;;;;;;;18.60;17.00;;;;;;;;4981488;28;8870;-76
2022/06/04 08:43:10;;;;;;;;;17.40;15.60;;;;;;;;4956683;28;8903;-77
2022/06/04 08:45:39;;;;;;;;;20.80;18.80;;;;;;;;4980192;28;8956;-73
2022/06/04 08:48:15;;;;;;;;;20.20;20.20;;;;;;;;4979359;28;8892;-75
2022/06/04 08:50:42;;;;;;;;;17.60;16.00;;;;;;;;4980004;28;8907;-78
2022/06/04 08:53:19;;;;;;;;;19.20;19.20;;;;;;;;4983132;28;9749;-77
2022/06/04 08:58:52;;;;;;;;;18.80;18.80;;;;;;;;4981252;28;8872;-77
2022/06/04 09:01:24;;;;;;;;;20.60;19.40;;;;;;;;4980680;28;8848;-78
2022/06/04 09:03:57;;;;;;;;;14.80;13.80;;;;;;;;4963362;28;8908;-79
2022/06/04 09:06:33;;;;;;;;;20.00;19.60;;;;;;;;4982189;28;8908;-78
2022/06/04 09:09:04;;;;;;;;;24.20;24.20;;;;;;;;4979665;28;8916;-76
2022/06/04 09:11:43;;;;;;;;;15.80;15.80;;;;;;;;4979331;28;10120;-77
2022/06/04 09:14:26;;;;;;;;;18.80;17.20;;;;;;;;4979752;28;8879;-76
2022/06/04 09:16:58;;;;;;;;;15.20;14.80;;;;;;;;4980037;28;8869;-75
2022/06/04 09:19:28;;;;;;;;;13.80;13.80;;;;;;;;4980335;28;8918;-74
2022/06/04 09:21:57;;;;;;;;;14.60;14.60;;;;;;;;4978920;28;8880;-75
2022/06/04 09:24:25;;;;;;;;;13.40;13.00;;;;;;;;4981717;28;8887;-75
2022/06/04 09:26:56;;;;;;;;;16.00;15.40;;;;;;;;4979579;28;8853;-75
2022/06/04 09:29:45;;;;;;;;;18.20;16.60;;;;;;;;4972672;28;8918;-76
2022/06/04 09:32:18;;;;;;;;;18.80;18.00;;;;;;;;4979070;28;8827;-75
2022/06/04 09:34:48;;;;;;;;;15.20;13.40;;;;;;;;4979160;28;9701;-75
2022/06/04 09:37:15;;;;;;;;;14.40;12.60;;;;;;;;4982946;28;9709;-76
2022/06/04 09:39:45;;;;;;;;;14.40;13.00;;;;;;;;4981353;28;8850;-82
2022/06/04 09:42:23;;;;;;;;;15.60;13.00;;;;;;;;4981321;28;8891;-78
2022/06/04 09:45:01;;;;;;;;;12.20;12.20;;;;;;;;4982674;28;8998;-80
2022/06/04 09:47:33;;;;;;;;;13.20;13.20;;;;;;;;4984644;28;9669;-78
2022/06/04 09:50:03;;;;;;;;;12.20;12.20;;;;;;;;4982743;28;8866;-75
2022/06/04 09:52:37;;;;;;;;;16.80;16.80;;;;;;;;4960433;28;8855;-78
2022/06/04 09:55:15;;;;;;;;;14.00;13.40;;;;;;;;4979449;28;9691;-74
2022/06/04 09:57:42;;;;;;;;;13.80;13.80;;;;;;;;4979270;28;8870;-75
2022/06/04 10:00:23;;;;;;;;;14.20;13.40;;;;;;;;4984767;28;8863;-77
2022/06/04 10:02:54;;;;;;;;;11.20;11.20;;;;;;;;4980170;28;8846;-77
2022/06/04 10:05:24;;;;;;;;;14.80;14.80;;;;;;;;4983635;28;8889;-76
2022/06/04 10:07:52;;;;;;;;;10.40;10.40;;;;;;;;4984885;28;8896;-74
2022/06/04 10:10:37;;;;;;;;;12.40;11.60;;;;;;;;4985430;28;8863;-75
2022/06/04 10:16:00;;;;;;;;;254.00;229.67;;;;;;;;4988616;28;8823;-76
2022/06/04 10:18:30;;;;;;;;;87.75;80.25;;;;;;;;4986904;28;8864;-73
2022/06/04 10:21:02;;;;;;;;;13.40;13.40;;;;;;;;4987220;28;8864;-75
2022/06/04 10:23:32;;;;;;;;;34.40;30.40;;;;;;;;4989352;28;8847;-76
2022/06/04 10:26:18;;;;;;;;;35.20;30.60;;;;;;;;4984461;28;9001;-78
2022/06/04 10:28:54;;;;;;;;;7.80;7.80;;;;;;;;4985274;28;8901;-75
2022/06/04 10:31:31;;;;;;;;;8.60;8.60;;;;;;;;4976660;28;8811;-77
2022/06/04 10:34:06;;;;;;;;;9.40;9.40;;;;;;;;4985359;28;8882;-76
2022/06/04 10:36:47;;;;;;;;;58.75;50.00;;;;;;;;4985694;28;8847;-75
2022/06/04 10:39:27;;;;;;;;;77.75;73.25;;;;;;;;4982790;28;8876;-77
2022/06/04 10:42:00;;;;;;;;;71.00;65.25;;;;;;;;4982323;28;8872;-76
2022/06/04 10:44:51;;;;;;;;;17.00;16.40;;;;;;;;4984410;28;8902;-74
2022/06/04 10:47:27;;;;;;;;;12.40;12.40;;;;;;;;4978613;28;8872;-77
2022/06/04 10:50:17;;;;;;;;;11.20;9.40;;;;;;;;4990194;28;9622;-77
2022/06/04 10:52:47;;;;;;;;;7.60;7.60;;;;;;;;4979671;28;8889;-74
2022/06/04 10:55:21;;;;;;;;;6.00;6.00;;;;;;;;4984541;28;8877;-77
2022/06/04 10:57:56;;;;;;;;;12.60;11.40;;;;;;;;4984047;28;8890;-76
2022/06/04 11:00:27;;;;;;;;;6.40;6.40;;;;;;;;4993222;28;14360;-82
2022/06/04 11:03:01;;;;;;;;;10.40;10.40;;;;;;;;4985726;28;8884;-74
2022/06/04 11:05:33;;;;;;;;;9.40;9.40;;;;;;;;4982127;28;8874;-77
2022/06/04 11:08:05;;;;;;;;;8.80;8.80;;;;;;;;4990494;28;9634;-74
2022/06/04 11:10:38;;;;;;;;;5.60;5.60;;;;;;;;4982126;28;8864;-75
2022/06/04 11:13:11;;;;;;;;;6.60;6.60;;;;;;;;4980832;28;8872;-73
2022/06/04 11:15:42;;;;;;;;;17.00;17.00;;;;;;;;4985724;28;8859;-72
2022/06/04 11:18:16;;;;;;;;;10.60;10.60;;;;;;;;4981943;28;8841;-77
2022/06/04 11:20:51;;;;;;;;;6.00;6.00;;;;;;;;4987043;28;9641;-75
2022/06/04 11:23:30;;;;;;;;;7.40;7.40;;;;;;;;4992755;28;8848;-73
2022/06/04 11:26:02;;;;;;;;;8.20;6.60;;;;;;;;4989129;28;8859;-75
2022/06/04 11:28:30;;;;;;;;;7.00;7.00;;;;;;;;4960273;28;8847;-78
2022/06/04 11:31:10;;;;;;;;;6.60;6.60;;;;;;;;4970081;28;8829;-74
2022/06/04 11:33:50;;;;;;;;;8.20;6.80;;;;;;;;4986908;28;8872;-74
2022/06/04 11:36:25;;;;;;;;;5.00;5.00;;;;;;;;4983546;28;8930;-77
2022/06/04 11:39:07;;;;;;;;;7.00;5.40;;;;;;;;4990176;28;8878;-77
2022/06/04 11:41:40;;;;;;;;;5.00;5.00;;;;;;;;4985395;28;8989;-75
2022/06/04 11:44:23;;;;;;;;;6.00;6.00;;;;;;;;4982996;28;8888;-81
2022/06/04 11:47:01;;;;;;;;;6.80;6.20;;;;;;;;4978094;28;8874;-75
2022/06/04 11:49:35;;;;;;;;;5.00;5.00;;;;;;;;4985471;28;8944;-76
2022/06/04 11:52:22;;;;;;;;;5.00;5.00;;;;;;;;4988759;28;8859;-76
2022/06/04 11:55:06;;;;;;;;;5.60;5.60;;;;;;;;4985327;28;8863;-73
2022/06/04 11:57:40;;;;;;;;;7.80;5.60;;;;;;;;4981057;28;8857;-74
2022/06/04 12:00:17;;;;;;;;;5.80;5.60;;;;;;;;4989788;28;8875;-74
2022/06/04 12:02:52;;;;;;;;;5.20;5.20;;;;;;;;4979358;28;8863;-76
2022/06/04 12:05:41;;;;;;;;;5.00;5.00;;;;;;;;4979733;28;8933;-77
2022/06/04 12:08:11;;;;;;;;;6.40;6.40;;;;;;;;4983382;28;9145;-73
2022/06/04 12:10:48;;;;;;;;;6.00;6.00;;;;;;;;4981209;28;9728;-75
2022/06/04 12:13:23;;;;;;;;;4.40;4.40;;;;;;;;4984671;28;8897;-74
2022/06/04 12:15:53;;;;;;;;;8.60;7.00;;;;;;;;4988200;28;8969;-75
2022/06/04 12:18:27;;;;;;;;;5.00;5.00;;;;;;;;4983373;28;8886;-74
2022/06/04 12:26:35;;;;;;;;;6.00;6.00;;;;;;;;4989960;28;8855;-75
2022/06/04 12:29:04;;;;;;;;;8.40;7.00;;;;;;;;4983318;28;8938;-75
2022/06/04 12:31:37;;;;;;;;;5.40;5.40;;;;;;;;4981559;28;8898;-75
2022/06/04 12:34:19;;;;;;;;;7.20;5.80;;;;;;;;4986826;28;8846;-76
2022/06/04 12:36:53;;;;;;;;;5.40;5.40;;;;;;;;4979891;28;8862;-74
2022/06/04 12:39:23;;;;;;;;;5.20;5.20;;;;;;;;4988746;28;8885;-74
2022/06/04 12:41:52;;;;;;;;;4.60;4.60;;;;;;;;4976996;28;8915;-74
2022/06/04 12:44:23;;;;;;;;;6.00;6.00;;;;;;;;4968477;28;8926;-76
2022/06/04 12:46:51;;;;;;;;;3.60;3.60;;;;;;;;4982760;28;8835;-75
2022/06/04 12:49:28;;;;;;;;;4.80;4.80;;;;;;;;4988839;28;8850;-74
2022/06/04 12:51:59;;;;;;;;;6.80;6.80;;;;;;;;4985675;28;8851;-73
2022/06/04 12:54:51;;;;;;;;;4.80;4.80;;;;;;;;4988150;28;8858;-73
2022/06/04 12:57:36;;;;;;;;;3.00;3.00;;;;;;;;4982187;28;8937;-77
2022/06/04 13:00:20;;;;;;;;;2.80;2.00;;;;;;;;4985623;28;8860;-74
2022/06/04 13:03:13;;;;;;;;;4.00;4.00;;;;;;;;4989975;28;8849;-73
2022/06/04 13:06:11;;;;;;;;;4.80;4.80;;;;;;;;4986136;28;8904;-75
2022/06/04 13:08:46;;;;;;;;;3.00;3.00;;;;;;;;4989618;28;8866;-73
2022/06/04 13:11:26;;;;;;;;;4.00;4.00;;;;;;;;4986615;28;8865;-73
2022/06/04 13:14:12;;;;;;;;;5.00;5.00;;;;;;;;4984132;28;9824;-72
2022/06/04 13:16:48;;;;;;;;;7.00;5.00;;;;;;;;4983503;28;8863;-73
2022/06/04 13:19:35;;;;;;;;;4.00;4.00;;;;;;;;4984692;28;8856;-73
2022/06/04 13:22:05;;;;;;;;;5.00;5.00;;;;;;;;4986169;28;8890;-75
2022/06/04 13:24:36;;;;;;;;;4.80;4.00;;;;;;;;4985183;28;8867;-74
2022/06/04 13:27:10;;;;;;;;;4.60;3.40;;;;;;;;4987028;28;8891;-73
2022/06/04 13:29:39;;;;;;;;;6.40;4.40;;;;;;;;4983755;28;8867;-72
2022/06/04 13:32:13;;;;;;;;;2.80;2.40;;;;;;;;4987708;28;8855;-72
2022/06/04 13:34:42;;;;;;;;;2.60;2.60;;;;;;;;4982797;28;8902;-74
2022/06/04 13:37:18;;;;;;;;;3.00;3.00;;;;;;;;4982448;28;8961;-74
2022/06/04 13:39:49;;;;;;;;;2.40;2.40;;;;;;;;4977769;28;9679;-74
2022/06/04 13:42:21;;;;;;;;;5.00;5.00;;;;;;;;4980670;28;8882;-73
2022/06/04 13:44:54;;;;;;;;;3.20;3.20;;;;;;;;4987606;28;8866;-75
2022/06/04 13:47:25;;;;;;;;;4.40;4.40;;;;;;;;4985081;28;8977;-75
2022/06/04 13:50:12;;;;;;;;;3.40;3.40;;;;;;;;4985357;28;8867;-72
2022/06/04 13:52:45;;;;;;;;;3.20;3.20;;;;;;;;4979476;28;8858;-73
2022/06/04 13:55:19;;;;;;;;;5.80;4.00;;;;;;;;4963835;28;8869;-73
2022/06/04 13:57:50;;;;;;;;;3.60;3.60;;;;;;;;4972926;28;8886;-73
2022/06/04 14:00:20;;;;;;;;;6.00;4.80;;;;;;;;4978300;28;9021;-74
2022/06/04 14:02:53;;;;;;;;;3.60;3.60;;;;;;;;4978888;28;8838;-73
2022/06/04 14:08:10;;;;;;;;;4.00;4.00;;;;;;;;4982223;28;8860;-74
2022/06/04 14:10:39;;;;;;;;;5.40;4.60;;;;;;;;4979633;28;8913;-74
2022/06/04 14:13:19;;;;;;;;;4.00;4.00;;;;;;;;4986934;28;8894;-72
2022/06/04 14:16:05;;;;;;;;;4.00;4.00;;;;;;;;4982585;28;8885;-72
2022/06/04 14:18:53;;;;;;;;;4.00;4.00;;;;;;;;4986875;28;8868;-73
2022/06/04 14:21:34;;;;;;;;;4.60;4.60;;;;;;;;4970667;28;8866;-73
2022/06/04 14:24:13;;;;;;;;;5.00;5.00;;;;;;;;4979270;28;8878;-73
2022/06/04 14:26:48;;;;;;;;;4.00;4.00;;;;;;;;4981496;28;8925;-72
2022/06/04 14:29:23;;;;;;;;;3.60;3.60;;;;;;;;4978580;28;8858;-73
2022/06/04 14:31:59;;;;;;;;;5.40;5.40;;;;;;;;4975416;28;8847;-72
2022/06/04 14:34:35;;;;;;;;;6.80;5.40;;;;;;;;4980622;28;8870;-72
2022/06/04 14:37:02;;;;;;;;;5.00;5.00;;;;;;;;4974997;28;8878;-72
2022/06/04 14:39:31;;;;;;;;;4.40;4.40;;;;;;;;4976782;28;8895;-73
2022/06/04 14:42:11;;;;;;;;;4.60;4.60;;;;;;;;4975459;28;8899;-74
2022/06/04 14:45:01;;;;;;;;;9.00;7.20;;;;;;;;4983161;28;8968;-73
2022/06/04 14:47:48;;;;;;;;;4.80;4.20;;;;;;;;4981445;28;8898;-76
2022/06/04 14:50:25;;;;;;;;;3.40;3.40;;;;;;;;4980976;28;9033;-74
2022/06/04 14:52:54;;;;;;;;;5.60;5.60;;;;;;;;4980525;28;8884;-72
2022/06/04 14:55:27;;;;;;;;;4.40;4.40;;;;;;;;4980909;28;8886;-73
2022/06/04 14:58:21;;;;;;;;;3.60;3.60;;;;;;;;4984696;28;8843;-73
2022/06/04 15:01:15;;;;;;;;;5.00;5.00;;;;;;;;4983798;28;8823;-75
2022/06/04 15:04:13;;;;;;;;;5.00;5.00;;;;;;;;4983514;28;8878;-76
2022/06/04 15:06:50;;;;;;;;;5.00;5.00;;;;;;;;4984498;28;8877;-75
2022/06/04 15:09:33;;;;;;;;;5.80;5.80;;;;;;;;4978977;28;8886;-72
2022/06/04 15:12:33;;;;;;;;;5.60;5.60;;;;;;;;4979956;28;10073;-76
2022/06/04 15:15:09;;;;;;;;;5.20;5.20;;;;;;;;4978122;28;8897;-74
2022/06/04 15:17:59;;;;;;;;;4.20;4.20;;;;;;;;4978118;28;8866;-73
2022/06/04 15:20:35;;;;;;;;;5.80;5.80;;;;;;;;4978330;28;8878;-73
2022/06/04 15:23:13;;;;;;;;;3.80;3.80;;;;;;;;4978178;28;8932;-73
2022/06/04 15:25:48;;;;;;;;;3.80;3.80;;;;;;;;4982122;28;8878;-75
2022/06/04 15:34:01;;;;;;;;;5.00;5.00;;;;;;;;4978653;28;8827;-72
2022/06/04 15:36:43;;;;;;;;;4.20;4.20;;;;;;;;4979607;28;8840;-73
2022/06/04 15:39:22;;;;;;;;;4.00;4.00;;;;;;;;4987986;28;8930;-73
2022/06/04 15:41:55;;;;;;;;;3.80;3.80;;;;;;;;4984576;28;8854;-73
2022/06/04 15:44:24;;;;;;;;;5.00;5.00;;;;;;;;4987396;28;8974;-72
2022/06/04 15:46:57;;;;;;;;;4.80;4.80;;;;;;;;4979101;28;8890;-73
2022/06/04 15:58:05;;;;;;;;;5.00;4.00;;;;;;;;4986031;28;8883;-73
2022/06/04 16:00:36;;;;;;;;;4.00;4.00;;;;;;;;4986193;28;8827;-73
2022/06/04 16:03:19;;;;;;;;;4.80;4.80;;;;;;;;4970353;28;8871;-74
2022/06/04 16:05:56;;;;;;;;;4.60;4.60;;;;;;;;4981869;28;9024;-73
2022/06/04 16:08:25;;;;;;;;;4.00;4.00;;;;;;;;4991247;28;8881;-72
2022/06/04 16:11:13;;;;;;;;;3.40;3.40;;;;;;;;4986672;28;9685;-72
2022/06/04 16:14:04;;;;;;;;;6.40;3.60;;;;;;;;4988171;28;8881;-73
2022/06/04 16:16:43;;;;;;;;;5.60;5.60;;;;;;;;4989028;28;8964;-74